02:12
Airports
Links
Donate
Help keep this website running!
PayPal
Bitcoin
METAR
PHNL 260153Z 06012KT 10SM FEW025 SCT038 BKN050 28/19 A3003 RMK AO2 SLP169 VCSH NE T02780189
Current Weather Conditions at PHNL
VFR 01:53:00 26-04-17
Automated station
Altimeter:30.03 hg
Temp:27.8°c 81°f
Dew point:18.9°c 64°f
Wind:12 knots, 13.8 mph, 6 m/s, from 60°
Visibility:10.0 statute miles
5000(BKN) Broken
3800(SCT) Scattered
2500(FEW) A few
Past METAR reports
VFR 00:53:00 26-04-17
Automated station
Altimeter:30.04 hg
Temp:28.3°c 82°f
Dew point:18.9°c 64°f
Wind:13 knots, 15 mph, 7 m/s, from 40°
Visibility:10.0 statute miles
5500(BKN) Broken
4000(SCT) Scattered
2500(FEW) A few
PHNL 260053Z 04013G17KT 10SM FEW025 SCT040 BKN055 28/19 A3004 RMK AO2 SLP172 VCSH NE T02830189
VFR 23:53:00 25-04-17
Automated station
Altimeter:30.06 hg
Temp:28.3°c 82°f
Dew point:18.3°c 64°f
Wind:11 knots, 12.7 mph, 6 m/s, from 50°
Visibility:10.0 statute miles
6000(BKN) Broken
4600(SCT) Scattered
2500(FEW) A few
PHNL 252353Z 05011KT 10SM FEW025 SCT046 BKN060 28/18 A3006 RMK AO2 SLP178 T02830183 10294 20256 58017
VFR 22:53:00 25-04-17
Automated station
Altimeter:30.09 hg
Temp:26.7°c 79°f
Dew point:19.4°c 66°f
Wind:11 knots, 12.7 mph, 6 m/s, from 50°
Visibility:10.0 statute miles
6000(BKN) Broken
5000(SCT) Scattered
2500(FEW) A few
PHNL 252253Z 05011G19KT 10SM FEW025 SCT050 BKN060 27/19 A3009 RMK AO2 SLP188 T02670194
VFR 21:53:00 25-04-17
Automated station
Altimeter:30.09 hg
Temp:28.9°c 82°f
Dew point:18.3°c 64°f
Wind:13 knots, 15 mph, 7 m/s, from 60°
Visibility:10.0 statute miles
8000(SCT) Scattered
5000(SCT) Scattered
2600(FEW) A few
PHNL 252153Z 06013KT 10SM FEW026 SCT050 SCT080 29/18 A3009 RMK AO2 SLP190 T02890183
VFR 20:53:00 25-04-17
Automated station
Altimeter:30.11 hg
Temp:29.4°c 84°f
Dew point:17.2°c 63°f
Wind:16 knots, 18.4 mph, 8 m/s, from 80°
Visibility:10.0 statute miles
5000(SCT) Scattered
2600(FEW) A few
PHNL 252053Z 08016G23KT 10SM FEW026 SCT050 29/17 A3011 RMK AO2 SLP195 T02940172 51006
TAF
PHNL 252331Z 2600/2706 06013G20KT P6SM FEW030 SCT050 FM260400 05010KT P6SM FEW030 SCT050 FM262000 07013G20KT P6SM FEW030 SCT050 FM270500 06010KT P6SM FEW030 SCT050
Forecast at PHNL
00:00 26-04-17 to 04:00 26-04-17
Wind:13 Knots from 60°
Visibility:6.21 statute miles
3000FEW A few
5000SCT Scattered
FM 04:00 26-04-17 to 20:00 26-04-17
Wind:10 Knots from 50°
Visibility:6.21 statute miles
3000FEW A few
5000SCT Scattered
FM 20:00 26-04-17 to 05:00 27-04-17
Wind:13 Knots from 70°
Visibility:6.21 statute miles
3000FEW A few
5000SCT Scattered
FM 05:00 27-04-17 to 06:00 27-04-17
Wind:10 Knots from 60°
Visibility:6.21 statute miles
3000FEW A few
5000SCT Scattered